Time;durP1;ratioP1;P1;durP2;ratioP2;P2;SDS_P1;SDS_P2;PMS_P1;PMS_P2;Temp;Humidity;BMP_temperature;BMP_pressure;BME280_temperature;BME280_humidity;BME280_pressure;Samples;Min_cycle;Max_cycle;Signal;HPM_P1;HPM_P2
2022/05/07 00:01:07;;;;;;;4.10;3.70;;;9.20;90.50;;;;;;4996143;28;20469;-51
2022/05/07 00:03:35;;;;;;;6.40;3.93;;;9.20;90.30;;;;;;5000654;28;20529;-52
2022/05/07 00:06:02;;;;;;;7.03;4.30;;;9.20;90.30;;;;;;4996741;28;21072;-53
2022/05/07 00:08:29;;;;;;;5.53;3.93;;;9.30;90.10;;;;;;5002172;28;20481;-53
2022/05/07 00:10:55;;;;;;;6.60;3.80;;;9.40;90.00;;;;;;4997227;28;20494;-52
2022/05/07 00:13:22;;;;;;;4.57;4.07;;;9.40;90.00;;;;;;5010299;28;20470;-52
2022/05/07 00:18:30;;;;;;;4.30;3.90;;;9.20;90.30;;;;;;5002121;28;20484;-51
2022/05/07 00:20:58;;;;;;;5.67;4.00;;;9.30;90.20;;;;;;5001583;28;20487;-52
2022/05/07 00:23:25;;;;;;;5.60;3.33;;;9.30;90.00;;;;;;5002008;28;20482;-52
2022/05/07 00:25:51;;;;;;;6.73;3.40;;;9.40;89.70;;;;;;4998996;28;20565;-52
2022/05/07 00:28:18;;;;;;;10.20;4.10;;;9.40;89.80;;;;;;4998147;28;20825;-52
2022/05/07 00:30:45;;;;;;;10.37;4.23;;;9.50;90.10;;;;;;4994039;28;21011;-52
2022/05/07 00:33:12;;;;;;;5.97;4.83;;;9.50;90.00;;;;;;5001738;28;20485;-52
2022/05/07 00:35:38;;;;;;;4.60;3.90;;;9.60;90.00;;;;;;5000351;28;20483;-52
2022/05/07 00:38:06;;;;;;;7.33;4.47;;;9.60;90.00;;;;;;4994832;28;20478;-52
2022/05/07 00:40:33;;;;;;;4.77;3.63;;;9.60;89.30;;;;;;5001829;28;20905;-53
2022/05/07 00:43:00;;;;;;;7.70;4.70;;;9.60;88.70;;;;;;5002481;28;20499;-53
2022/05/07 00:45:27;;;;;;;7.00;3.50;;;9.50;88.60;;;;;;5004026;28;20485;-52
2022/05/07 00:47:53;;;;;;;6.97;4.00;;;9.50;88.50;;;;;;5000432;28;20772;-52
2022/05/07 00:53:06;;;;;;;3.67;3.27;;;9.50;88.20;;;;;;5006108;28;20578;-53
2022/05/07 00:55:35;;;;;;;5.67;3.60;;;9.50;88.60;;;;;;4994971;28;20482;-53
2022/05/07 00:58:02;;;;;;;4.90;4.00;;;9.40;88.00;;;;;;5006466;28;21280;-53
2022/05/07 01:00:28;;;;;;;5.17;3.70;;;9.40;87.70;;;;;;4997655;28;20905;-52
2022/05/07 01:02:55;;;;;;;5.57;4.23;;;9.40;87.70;;;;;;4989694;28;20473;-52
2022/05/07 01:05:22;;;;;;;4.80;4.40;;;9.40;88.10;;;;;;4995536;28;20484;-53
2022/05/07 01:07:50;;;;;;;6.97;4.80;;;9.40;88.80;;;;;;5002554;28;20482;-52
2022/05/07 01:10:19;;;;;;;4.87;4.30;;;9.30;88.90;;;;;;4997359;28;20485;-53
2022/05/07 01:12:47;;;;;;;4.30;3.93;;;9.30;88.80;;;;;;4998998;28;20485;-53
2022/05/07 01:15:13;;;;;;;4.33;3.93;;;9.30;88.90;;;;;;4995649;28;20498;-52
2022/05/07 01:17:40;;;;;;;3.83;3.43;;;9.30;88.60;;;;;;4997542;28;21349;-53
2022/05/07 01:20:09;;;;;;;7.10;3.87;;;9.20;88.10;;;;;;5000250;28;20481;-53
2022/05/07 01:22:37;;;;;;;3.93;3.53;;;9.20;88.40;;;;;;5001534;28;20478;-53
2022/05/07 01:25:06;;;;;;;6.00;4.30;;;9.10;88.10;;;;;;5005272;28;20482;-53
2022/05/07 01:27:33;;;;;;;3.93;3.63;;;9.20;88.20;;;;;;4992370;28;20499;-53
2022/05/07 01:29:59;;;;;;;8.23;4.17;;;9.10;87.80;;;;;;5004937;28;20486;-53
2022/05/07 01:32:26;;;;;;;6.67;4.93;;;9.20;88.40;;;;;;4998686;28;20487;-53
2022/05/07 01:34:53;;;;;;;5.13;3.97;;;9.20;88.20;;;;;;4997986;28;20497;-52
2022/05/07 01:37:20;;;;;;;4.07;3.67;;;9.10;87.70;;;;;;4999310;28;20917;-53
2022/05/07 01:39:48;;;;;;;4.00;3.60;;;9.10;87.20;;;;;;5003138;28;20514;-53
2022/05/07 01:42:14;;;;;;;5.13;4.03;;;9.10;86.80;;;;;;4999972;28;21195;-53
2022/05/07 01:44:41;;;;;;;3.70;3.40;;;9.10;87.50;;;;;;4999715;28;20475;-53
2022/05/07 01:49:53;;;;;;;4.70;4.13;;;9.00;87.80;;;;;;5000747;28;20524;-53
2022/05/07 01:52:19;;;;;;;8.23;4.40;;;8.90;87.80;;;;;;4997937;28;20765;-53
2022/05/07 01:54:47;;;;;;;3.93;3.50;;;8.80;88.00;;;;;;5005836;28;20483;-53
2022/05/07 01:57:14;;;;;;;3.73;3.40;;;8.80;88.40;;;;;;4998886;28;21477;-53
2022/05/07 01:59:41;;;;;;;5.00;4.07;;;8.60;88.50;;;;;;4998227;28;21044;-53
2022/05/07 02:02:08;;;;;;;5.70;3.70;;;8.50;89.00;;;;;;5002483;28;20502;-53
2022/05/07 02:04:35;;;;;;;4.90;4.40;;;8.50;88.90;;;;;;4990810;28;20914;-53
2022/05/07 02:07:01;;;;;;;3.93;3.53;;;8.50;88.60;;;;;;5000372;28;20478;-53
2022/05/07 02:09:28;;;;;;;4.40;3.77;;;8.40;89.20;;;;;;4999221;28;20938;-53
2022/05/07 02:11:56;;;;;;;5.23;4.47;;;8.40;88.40;;;;;;4999353;28;20998;-53
2022/05/07 02:14:23;;;;;;;4.23;3.70;;;8.30;88.80;;;;;;4996059;28;20826;-53
2022/05/07 02:16:50;;;;;;;5.30;4.07;;;8.30;89.10;;;;;;4998195;28;20568;-52
2022/05/07 02:19:16;;;;;;;10.10;3.97;;;8.30;88.90;;;;;;4998073;28;20477;-53
2022/05/07 02:21:43;;;;;;;4.20;3.80;;;8.30;88.90;;;;;;4996807;28;20480;-53
2022/05/07 02:24:10;;;;;;;6.60;4.37;;;8.30;88.70;;;;;;5002917;28;20926;-53
2022/05/07 02:26:36;;;;;;;5.87;4.17;;;8.10;89.10;;;;;;5000510;28;20524;-53
2022/05/07 02:29:05;;;;;;;4.70;3.90;;;8.00;90.00;;;;;;4999378;28;20541;-53
2022/05/07 02:31:31;;;;;;;7.27;4.83;;;7.80;90.50;;;;;;5000809;28;20492;-53
2022/05/07 02:33:58;;;;;;;5.13;4.63;;;7.60;91.30;;;;;;5007423;28;20496;-53
2022/05/07 02:36:24;;;;;;;4.70;4.30;;;7.50;91.60;;;;;;4996278;28;20471;-53
2022/05/07 02:38:51;;;;;;;4.70;4.10;;;7.50;91.30;;;;;;5000562;28;20867;-53
2022/05/07 02:44:04;;;;;;;5.10;4.10;;;7.70;90.70;;;;;;4995705;28;20909;-54
2022/05/07 02:46:32;;;;;;;4.87;4.23;;;7.80;90.40;;;;;;5001453;28;20913;-53
2022/05/07 02:48:58;;;;;;;4.47;4.07;;;7.70;90.30;;;;;;5003203;28;21103;-53
2022/05/07 02:51:25;;;;;;;4.80;4.30;;;7.80;90.30;;;;;;5003672;28;20487;-53
2022/05/07 02:53:52;;;;;;;7.73;4.13;;;7.80;90.10;;;;;;4996075;28;21064;-53
2022/05/07 02:56:19;;;;;;;4.03;3.63;;;7.90;90.10;;;;;;5002809;28;20709;-54
2022/05/07 02:58:45;;;;;;;3.77;3.27;;;7.90;89.90;;;;;;4990461;28;20483;-54
2022/05/07 03:01:12;;;;;;;6.23;3.63;;;8.00;89.80;;;;;;5002248;28;20903;-54
2022/05/07 03:03:40;;;;;;;8.60;4.43;;;8.10;89.90;;;;;;4998229;28;20488;-53
2022/05/07 03:06:07;;;;;;;7.07;3.87;;;8.10;89.80;;;;;;4998588;28;21003;-53
2022/05/07 03:08:33;;;;;;;4.13;3.33;;;8.20;89.50;;;;;;4997154;28;20484;-54
2022/05/07 03:11:00;;;;;;;5.10;3.60;;;8.20;89.00;;;;;;4985185;28;20506;-54
2022/05/07 03:13:27;;;;;;;6.53;4.40;;;8.20;88.50;;;;;;4992630;28;25465;-54
2022/05/07 03:15:53;;;;;;;8.60;4.33;;;8.20;88.30;;;;;;4989696;28;20487;-54
2022/05/07 03:18:20;;;;;;;3.63;3.13;;;8.10;88.00;;;;;;5009877;28;21016;-55
2022/05/07 03:20:48;;;;;;;13.30;3.50;;;8.10;88.10;;;;;;4999111;28;21636;-55
2022/05/07 03:23:15;;;;;;;4.20;3.40;;;8.20;88.30;;;;;;5003795;28;20533;-55
2022/05/07 03:25:42;;;;;;;4.37;3.97;;;8.20;88.10;;;;;;4993298;28;20505;-55
2022/05/07 03:28:08;;;;;;;5.00;4.17;;;8.20;88.10;;;;;;5001244;28;20476;-55
2022/05/07 03:30:35;;;;;;;6.60;3.90;;;8.10;88.10;;;;;;4997721;28;20992;-54
2022/05/07 03:33:01;;;;;;;7.03;4.00;;;8.10;88.10;;;;;;4992849;28;20970;-55
2022/05/07 03:35:29;;;;;;;6.13;4.10;;;8.10;88.10;;;;;;5001665;28;20479;-55
2022/05/07 03:37:57;;;;;;;4.27;3.87;;;8.10;87.90;;;;;;5000553;28;20600;-55
2022/05/07 03:40:24;;;;;;;4.13;3.70;;;8.10;88.10;;;;;;5002951;28;20526;-55
2022/05/07 03:42:50;;;;;;;6.20;3.87;;;8.10;88.10;;;;;;4999813;28;20699;-54
2022/05/07 03:45:17;;;;;;;4.97;4.40;;;8.00;88.00;;;;;;5002429;28;20840;-55
2022/05/07 03:47:44;;;;;;;6.17;3.97;;;8.00;87.70;;;;;;4987880;28;20814;-54
2022/05/07 03:50:11;;;;;;;4.33;3.50;;;8.00;87.60;;;;;;5007840;28;20497;-54
2022/05/07 03:55:23;;;;;;;5.13;3.83;;;7.80;87.80;;;;;;4997038;28;20512;-54
2022/05/07 03:57:50;;;;;;;7.50;4.60;;;7.60;88.20;;;;;;4998192;28;20521;-54
2022/05/07 04:00:17;;;;;;;4.93;4.53;;;7.40;88.80;;;;;;5003993;28;20542;-54
2022/05/07 04:02:43;;;;;;;4.93;4.43;;;7.20;89.70;;;;;;5000273;28;20605;-54
2022/05/07 04:05:10;;;;;;;5.00;4.50;;;7.10;90.10;;;;;;4992739;28;20481;-54
2022/05/07 04:07:37;;;;;;;5.47;4.00;;;7.20;90.30;;;;;;5005953;28;20486;-54
2022/05/07 04:10:05;;;;;;;4.33;3.67;;;7.20;90.20;;;;;;5001610;28;20581;-54
2022/05/07 04:12:33;;;;;;;4.10;3.30;;;7.30;90.00;;;;;;5005124;28;20491;-54
2022/05/07 04:15:00;;;;;;;6.30;4.17;;;7.40;90.00;;;;;;4998892;28;20481;-54
2022/05/07 04:17:27;;;;;;;5.53;4.60;;;7.40;90.10;;;;;;4997196;28;20911;-54
2022/05/07 04:19:54;;;;;;;6.47;4.67;;;7.40;90.00;;;;;;5005265;28;20982;-55
2022/05/07 04:22:21;;;;;;;4.10;3.70;;;7.50;89.80;;;;;;4994389;28;20484;-55
2022/05/07 04:24:48;;;;;;;5.10;4.50;;;7.50;89.60;;;;;;5007698;28;20481;-55
2022/05/07 04:27:14;;;;;;;7.70;4.63;;;7.50;89.50;;;;;;4997450;28;21300;-55
2022/05/07 04:29:42;;;;;;;5.33;4.07;;;7.60;89.40;;;;;;5006691;28;20821;-55
2022/05/07 04:32:09;;;;;;;4.37;3.97;;;7.60;89.10;;;;;;4999974;28;20472;-54
2022/05/07 04:34:36;;;;;;;4.40;4.00;;;7.70;89.30;;;;;;4998447;28;21130;-55
2022/05/07 04:37:03;;;;;;;4.70;4.30;;;7.70;89.60;;;;;;4995659;28;20514;-55
2022/05/07 04:39:31;;;;;;;4.50;4.10;;;7.70;90.00;;;;;;5002698;28;20502;-54
2022/05/07 04:41:57;;;;;;;4.53;4.13;;;7.70;90.10;;;;;;5001296;28;20493;-54
2022/05/07 04:44:24;;;;;;;10.50;4.13;;;7.80;90.10;;;;;;5001805;28;20475;-54
2022/05/07 04:46:53;;;;;;;7.13;4.80;;;7.80;90.10;;;;;;4997850;28;20568;-54
2022/05/07 04:49:21;;;;;;;6.83;4.53;;;7.90;90.20;;;;;;5003990;28;20479;-56
2022/05/07 04:51:50;;;;;;;4.37;3.97;;;8.00;90.00;;;;;;5002875;28;20503;-54
2022/05/07 04:54:17;;;;;;;5.60;3.77;;;8.10;89.70;;;;;;5013954;28;20986;-54
2022/05/07 04:56:44;;;;;;;4.67;4.13;;;8.10;89.30;;;;;;4998544;28;20975;-54
2022/05/07 04:59:10;;;;;;;5.70;4.50;;;8.10;89.20;;;;;;4994209;28;20488;-54
2022/05/07 05:01:37;;;;;;;5.30;4.80;;;8.10;89.60;;;;;;5001210;28;21013;-54
2022/05/07 05:04:05;;;;;;;4.73;3.97;;;8.00;90.00;;;;;;4995446;28;20471;-55
2022/05/07 05:06:32;;;;;;;14.00;4.53;;;7.90;90.10;;;;;;4994191;28;20498;-55
2022/05/07 05:08:59;;;;;;;9.93;5.00;;;7.80;90.50;;;;;;5006926;28;20525;-55
2022/05/07 05:11:26;;;;;;;5.33;4.83;;;7.70;90.80;;;;;;5005948;28;20477;-55
2022/05/07 05:13:53;;;;;;;5.57;5.00;;;7.70;90.90;;;;;;5002047;28;21193;-55
2022/05/07 05:16:19;;;;;;;6.80;5.27;;;8.00;91.40;;;;;;4993288;28;20477;-54
2022/05/07 05:18:46;;;;;;;6.43;5.77;;;8.20;91.50;;;;;;5004798;28;20491;-54
2022/05/07 05:21:14;;;;;;;7.17;5.70;;;8.40;91.40;;;;;;4995329;28;20480;-54
2022/05/07 05:23:41;;;;;;;6.53;4.83;;;8.60;91.40;;;;;;5002048;28;20480;-54
2022/05/07 05:26:07;;;;;;;8.03;6.43;;;8.80;91.50;;;;;;5002576;28;21059;-54
2022/05/07 05:28:35;;;;;;;5.77;5.27;;;9.00;91.50;;;;;;5001046;28;21026;-54
2022/05/07 05:31:02;;;;;;;6.00;5.40;;;9.30;91.70;;;;;;5001107;28;20480;-54
2022/05/07 05:33:29;;;;;;;6.47;5.23;;;9.60;91.90;;;;;;4999547;28;20483;-55
2022/05/07 05:35:55;;;;;;;6.13;4.70;;;10.00;91.20;;;;;;4999561;28;20516;-54
2022/05/07 05:38:24;;;;;;;9.03;6.60;;;10.30;91.00;;;;;;5000351;28;20838;-54
2022/05/07 05:40:51;;;;;;;10.90;6.47;;;10.60;90.90;;;;;;5000046;28;20491;-54
2022/05/07 05:43:18;;;;;;;10.33;6.67;;;10.90;91.00;;;;;;5004436;28;20470;-55
2022/05/07 05:45:45;;;;;;;7.20;6.50;;;11.10;90.90;;;;;;4996915;28;20593;-55
2022/05/07 05:48:11;;;;;;;8.13;7.10;;;11.30;90.60;;;;;;4994238;28;20520;-55
2022/05/07 05:50:38;;;;;;;6.40;5.73;;;11.50;90.70;;;;;;5001544;28;20500;-55
2022/05/07 05:53:06;;;;;;;9.37;6.37;;;11.60;90.90;;;;;;4991609;28;21011;-55
2022/05/07 05:55:34;;;;;;;6.53;5.87;;;11.60;90.90;;;;;;4994238;28;21029;-55
2022/05/07 05:58:01;;;;;;;6.67;6.13;;;11.70;90.90;;;;;;5004178;28;20490;-55
2022/05/07 06:00:28;;;;;;;7.93;6.10;;;11.80;90.90;;;;;;5000949;28;20479;-55
2022/05/07 06:02:54;;;;;;;7.30;6.60;;;11.80;91.10;;;;;;5000842;28;20838;-55
2022/05/07 06:05:21;;;;;;;6.77;6.00;;;11.90;91.30;;;;;;5002051;28;20603;-55
2022/05/07 06:07:48;;;;;;;7.73;6.70;;;12.00;91.40;;;;;;4994563;28;20491;-55
2022/05/07 06:10:14;;;;;;;11.00;6.30;;;12.40;91.50;;;;;;4997261;28;20862;-55
2022/05/07 06:12:42;;;;;;;8.20;7.17;;;12.40;91.80;;;;;;4990132;28;20570;-55
2022/05/07 06:15:10;;;;;;;10.13;6.93;;;12.50;91.70;;;;;;5000875;28;20490;-55
2022/05/07 06:17:37;;;;;;;8.77;7.50;;;12.60;91.70;;;;;;4999031;28;20484;-55
2022/05/07 06:20:05;;;;;;;7.97;6.60;;;12.80;91.80;;;;;;5005273;28;20476;-56
2022/05/07 06:22:31;;;;;;;9.67;7.50;;;12.80;91.70;;;;;;5000224;28;20476;-56
2022/05/07 06:27:44;;;;;;;8.50;7.70;;;13.20;92.30;;;;;;4999757;28;20863;-56
2022/05/07 06:30:11;;;;;;;8.97;8.00;;;13.40;91.80;;;;;;4993138;28;20607;-56
2022/05/07 06:32:40;;;;;;;11.80;10.03;;;13.60;91.80;;;;;;5003136;28;20480;-56
2022/05/07 06:35:09;;;;;;;10.57;8.63;;;13.90;91.70;;;;;;4997444;28;20960;-57
2022/05/07 06:37:37;;;;;;;8.67;7.80;;;14.10;91.70;;;;;;4993730;28;20477;-56
2022/05/07 06:40:07;;;;;;;11.73;8.70;;;14.30;91.40;;;;;;4999573;28;20493;-56
2022/05/07 06:42:35;;;;;;;10.50;7.67;;;14.50;91.00;;;;;;5004237;28;20483;-56
2022/05/07 06:45:03;;;;;;;8.50;7.60;;;14.60;91.20;;;;;;4996382;28;20743;-55
2022/05/07 06:47:30;;;;;;;15.70;7.43;;;14.90;92.10;;;;;;4997927;28;20483;-56
2022/05/07 06:49:57;;;;;;;10.47;7.10;;;15.20;91.50;;;;;;5006436;28;20516;-56
2022/05/07 06:52:23;;;;;;;8.23;7.07;;;15.50;91.20;;;;;;4998707;28;21144;-56
2022/05/07 06:54:50;;;;;;;11.53;8.00;;;15.90;91.20;;;;;;5011876;28;20477;-56
2022/05/07 06:57:17;;;;;;;13.00;7.40;;;16.30;91.00;;;;;;4999419;28;20775;-56
2022/05/07 06:59:44;;;;;;;8.17;7.10;;;16.60;90.40;;;;;;5003501;28;20482;-56
2022/05/07 07:02:12;;;;;;;10.93;9.60;;;16.80;90.80;;;;;;5005126;28;20511;-56
2022/05/07 07:04:39;;;;;;;12.17;9.60;;;17.20;90.80;;;;;;5002032;28;20815;-56
2022/05/07 07:07:06;;;;;;;13.50;12.10;;;17.40;89.60;;;;;;5001968;28;20485;-57
2022/05/07 07:09:33;;;;;;;13.20;11.90;;;17.60;87.10;;;;;;5004643;28;20492;-56
2022/05/07 07:11:59;;;;;;;16.13;14.23;;;17.90;88.10;;;;;;5000787;28;20480;-56
2022/05/07 07:14:26;;;;;;;16.93;15.13;;;18.10;87.80;;;;;;5007096;28;20487;-56
2022/05/07 07:16:53;;;;;;;24.13;16.27;;;18.30;87.30;;;;;;5005853;28;20488;-57
2022/05/07 07:19:21;;;;;;;23.13;15.00;;;18.40;86.80;;;;;;4997395;28;20492;-56
2022/05/07 07:21:50;;;;;;;18.50;14.67;;;18.50;86.50;;;;;;5004884;28;20476;-56
2022/05/07 07:24:18;;;;;;;19.57;17.27;;;18.60;85.90;;;;;;4994916;28;21037;-57
2022/05/07 07:26:45;;;;;;;21.63;19.33;;;18.80;86.60;;;;;;5003447;28;20476;-57
2022/05/07 07:29:11;;;;;;;20.47;17.93;;;19.00;85.80;;;;;;5000651;28;20487;-57
2022/05/07 07:31:38;;;;;;;24.93;20.33;;;19.20;84.00;;;;;;5006834;28;20844;-57
2022/05/07 07:34:05;;;;;;;23.83;19.67;;;19.50;83.90;;;;;;4995336;28;20516;-56
2022/05/07 07:36:33;;;;;;;20.23;18.00;;;19.70;82.90;;;;;;4999053;28;20478;-56
2022/05/07 07:39:00;;;;;;;27.20;20.57;;;19.90;82.10;;;;;;5002143;28;20484;-56
2022/05/07 07:41:26;;;;;;;23.10;19.70;;;20.10;82.50;;;;;;5002357;28;20484;-56
2022/05/07 07:43:53;;;;;;;20.83;17.00;;;20.40;83.10;;;;;;5002030;28;20941;-56
2022/05/07 07:49:04;;;;;;;16.17;14.57;;;20.80;82.40;;;;;;4989465;28;20576;-55
2022/05/07 07:51:30;;;;;;;20.97;14.40;;;21.00;83.10;;;;;;4990625;28;20485;-55
2022/05/07 07:53:58;;;;;;;15.57;14.07;;;21.10;83.40;;;;;;5004980;28;20492;-55
2022/05/07 07:56:28;;;;;;;16.33;14.63;;;21.40;83.00;;;;;;4998002;28;20889;-55
2022/05/07 07:58:58;;;;;;;21.87;15.60;;;21.60;84.20;;;;;;5006163;28;20903;-55
2022/05/07 08:01:25;;;;;;;17.70;15.80;;;21.80;83.10;;;;;;4999345;28;20860;-55
2022/05/07 08:03:52;;;;;;;19.77;17.20;;;22.10;80.70;;;;;;4991006;28;20576;-55
2022/05/07 08:06:18;;;;;;;23.73;17.30;;;22.30;82.30;;;;;;5003645;28;21097;-55
2022/05/07 08:11:46;;;;;;;20.93;17.40;;;22.60;79.70;;;;;;4988534;28;20519;-55
2022/05/07 08:14:14;;;;;;;17.87;16.03;;;22.70;82.10;;;;;;5001641;28;20826;-55
2022/05/07 08:16:41;;;;;;;17.50;14.93;;;22.80;79.20;;;;;;5002824;28;20488;-55
2022/05/07 08:19:08;;;;;;;18.40;15.60;;;22.90;78.60;;;;;;5000706;28;20491;-55
2022/05/07 08:21:34;;;;;;;16.37;14.57;;;23.10;80.70;;;;;;4998796;28;21027;-55
2022/05/07 08:24:02;;;;;;;17.37;15.67;;;23.30;76.80;;;;;;4997863;28;20487;-54
2022/05/07 08:26:28;;;;;;;15.97;13.70;;;23.50;78.10;;;;;;5002153;28;21129;-55
2022/05/07 08:28:57;;;;;;;12.60;11.30;;;23.80;77.80;;;;;;4991960;28;21605;-55
2022/05/07 08:31:23;;;;;;;13.90;10.17;;;24.00;76.50;;;;;;5005173;28;20564;-55
2022/05/07 08:33:51;;;;;;;8.90;8.20;;;24.20;75.90;;;;;;4996405;28;20495;-55
2022/05/07 08:36:18;;;;;;;10.67;9.67;;;24.30;73.80;;;;;;4996431;28;20487;-55
2022/05/07 08:38:44;;;;;;;9.23;8.23;;;24.50;72.50;;;;;;4992589;28;20482;-56
2022/05/07 08:41:11;;;;;;;10.20;8.67;;;24.60;70.50;;;;;;4994870;28;20494;-56
2022/05/07 08:43:41;;;;;;;8.77;7.60;;;24.70;72.50;;;;;;4997422;28;20472;-55
2022/05/07 08:46:14;;;;;;;9.80;8.80;;;24.90;73.40;;;;;;5002964;28;20905;-55
2022/05/07 08:48:42;;;;;;;11.40;8.30;;;25.00;70.80;;;;;;5002288;28;20487;-55
2022/05/07 08:51:09;;;;;;;9.27;8.40;;;25.00;68.50;;;;;;4996885;28;21009;-55
2022/05/07 08:53:36;;;;;;;10.60;9.50;;;24.90;74.60;;;;;;5000625;28;20553;-55
2022/05/07 08:56:03;;;;;;;12.10;9.03;;;25.10;73.40;;;;;;4997591;28;20483;-55
2022/05/07 08:58:30;;;;;;;12.43;6.90;;;25.10;71.10;;;;;;5005140;28;20889;-55
2022/05/07 09:00:59;;;;;;;7.83;7.13;;;25.20;71.90;;;;;;4998979;28;20613;-55
2022/05/07 09:03:38;;;;;;;9.93;8.27;;;25.10;70.60;;;;;;5006757;28;20459;-55
2022/05/07 09:06:19;;;;;;;10.37;8.73;;;25.30;72.80;;;;;;5002522;28;20475;-55
2022/05/07 09:08:47;;;;;;;7.83;7.13;;;25.40;71.90;;;;;;4995780;28;20494;-55
2022/05/07 09:11:14;;;;;;;8.70;7.90;;;25.60;71.90;;;;;;4997835;28;20522;-55
2022/05/07 09:13:41;;;;;;;6.00;5.50;;;25.70;68.00;;;;;;5018768;28;20830;-55
2022/05/07 09:16:08;;;;;;;6.33;5.73;;;25.60;69.90;;;;;;4996291;28;20482;-53
2022/05/07 09:18:36;;;;;;;9.60;4.90;;;25.80;69.80;;;;;;5003942;28;20472;-53
2022/05/07 09:21:19;;;;;;;4.30;3.90;;;25.80;67.10;;;;;;4999755;28;20476;-53
2022/05/07 09:23:47;;;;;;;4.83;3.73;;;25.90;65.90;;;;;;4997263;28;20787;-53
2022/05/07 09:26:25;;;;;;;4.93;4.03;;;26.00;65.10;;;;;;4998072;28;21631;-53
2022/05/07 09:28:51;;;;;;;4.33;4.03;;;26.10;65.80;;;;;;4997282;28;20866;-52
2022/05/07 09:31:26;;;;;;;6.70;5.77;;;26.20;66.80;;;;;;5002478;28;20486;-53
2022/05/07 09:33:55;;;;;;;5.60;3.67;;;26.40;66.20;;;;;;4998051;28;20484;-55
2022/05/07 09:36:23;;;;;;;5.87;4.33;;;26.40;62.20;;;;;;4992488;28;20810;-55
2022/05/07 09:38:59;;;;;;;5.20;4.70;;;25.90;65.90;;;;;;5001687;28;20998;-55
2022/05/07 09:41:25;;;;;;;4.87;4.47;;;25.90;64.50;;;;;;5004468;28;20484;-55
2022/05/07 09:43:54;;;;;;;6.33;5.60;;;25.90;64.30;;;;;;4990647;28;20991;-55
2022/05/07 09:46:20;;;;;;;4.93;4.47;;;26.10;65.50;;;;;;4997565;28;20448;-54
2022/05/07 09:48:48;;;;;;;5.47;4.70;;;26.30;65.00;;;;;;5000998;28;20851;-54
2022/05/07 09:51:18;;;;;;;5.00;4.60;;;26.40;63.80;;;;;;4997357;28;21168;-54
2022/05/07 09:59:14;;;;;;;3.40;2.87;;;26.50;61.60;;;;;;4997572;28;20538;-54
2022/05/07 10:02:10;;;;;;;5.20;3.90;;;26.70;64.70;;;;;;5003198;28;20908;-54
2022/05/07 10:05:03;;;;;;;4.13;3.73;;;26.80;62.90;;;;;;4958000;28;20842;-54
2022/05/07 10:07:53;;;;;;;3.93;3.10;;;26.80;57.40;;;;;;4977075;28;20479;-54
2022/05/07 10:10:25;;;;;;;5.40;2.93;;;26.50;62.10;;;;;;5004624;28;20940;-55
2022/05/07 10:12:55;;;;;;;5.70;3.37;;;26.30;60.90;;;;;;5000112;28;20887;-52
2022/05/07 10:15:24;;;;;;;5.17;3.03;;;26.40;61.40;;;;;;4994986;28;20466;-55
2022/05/07 10:18:02;;;;;;;4.50;3.03;;;26.40;61.00;;;;;;5003919;28;20907;-55
2022/05/07 10:20:40;;;;;;;2.97;2.70;;;26.50;62.90;;;;;;4994532;28;20851;-55
2022/05/07 10:23:09;;;;;;;5.00;3.03;;;26.50;61.20;;;;;;4992710;28;21198;-55
2022/05/07 10:25:36;;;;;;;5.10;3.27;;;26.40;61.10;;;;;;4992697;28;20478;-55
2022/05/07 10:28:11;;;;;;;5.03;2.80;;;26.10;56.20;;;;;;5001924;28;20495;-55
2022/05/07 10:30:49;;;;;;;9.47;2.70;;;25.90;59.20;;;;;;4988367;28;20477;-55
2022/05/07 10:33:16;;;;;;;3.77;3.00;;;25.70;60.10;;;;;;4997057;28;20985;-55
2022/05/07 10:35:44;;;;;;;3.20;2.90;;;25.70;60.20;;;;;;4994751;28;20831;-55
2022/05/07 10:38:13;;;;;;;4.20;3.80;;;25.90;62.20;;;;;;5005118;28;20576;-55
2022/05/07 10:40:59;;;;;;;4.80;3.00;;;26.00;59.60;;;;;;5002842;28;20492;-55
2022/05/07 10:43:31;;;;;;;5.20;3.20;;;26.10;60.50;;;;;;5010120;28;21071;-55
2022/05/07 10:46:01;;;;;;;6.97;3.97;;;26.40;61.90;;;;;;5007375;28;20459;-56
2022/05/07 10:48:28;;;;;;;6.73;2.80;;;26.40;57.60;;;;;;5012972;28;21475;-54
2022/05/07 10:50:59;;;;;;;3.70;3.00;;;26.40;60.30;;;;;;5015282;28;20904;-56
2022/05/07 10:53:37;;;;;;;3.30;3.00;;;26.20;58.80;;;;;;5011189;28;20467;-56
2022/05/07 10:56:04;;;;;;;6.33;3.07;;;25.90;57.60;;;;;;5004753;28;20886;-54
2022/05/07 10:58:31;;;;;;;4.13;2.60;;;25.70;57.90;;;;;;5020700;28;21002;-55
2022/05/07 11:00:59;;;;;;;4.10;3.27;;;25.70;60.80;;;;;;5012609;28;20880;-55
2022/05/07 11:03:27;;;;;;;5.60;2.97;;;25.80;59.20;;;;;;5015871;28;20537;-54
2022/05/07 11:06:00;;;;;;;5.07;3.40;;;26.10;61.80;;;;;;5013645;28;20879;-53
2022/05/07 11:08:29;;;;;;;3.50;2.70;;;26.20;58.40;;;;;;5015734;28;20481;-55
2022/05/07 11:11:07;;;;;;;2.53;2.33;;;26.30;56.70;;;;;;5012739;28;20550;-55
2022/05/07 11:13:38;;;;;;;6.10;2.63;;;26.30;59.40;;;;;;5007395;28;20883;-56
2022/05/07 11:16:06;;;;;;;2.77;2.57;;;26.30;59.50;;;;;;5012405;28;20483;-55
2022/05/07 11:18:34;;;;;;;4.03;3.20;;;26.40;59.60;;;;;;5010742;28;20455;-55
2022/05/07 11:21:02;;;;;;;4.20;2.40;;;26.40;58.30;;;;;;5013905;28;20492;-56
2022/05/07 11:23:30;;;;;;;3.17;2.87;;;26.40;59.00;;;;;;5013754;28;20543;-55
2022/05/07 11:25:56;;;;;;;3.37;2.93;;;26.40;59.10;;;;;;5014153;28;20469;-55
2022/05/07 11:28:24;;;;;;;5.70;2.30;;;26.50;59.40;;;;;;5013689;28;20488;-54
2022/05/07 11:30:52;;;;;;;2.87;2.67;;;26.60;55.30;;;;;;5012876;28;21299;-54
2022/05/07 11:33:24;;;;;;;3.20;2.90;;;26.80;59.20;;;;;;5018076;28;20534;-55
2022/05/07 11:36:01;;;;;;;3.70;3.27;;;27.00;58.40;;;;;;4999025;28;20519;-56
2022/05/07 11:38:27;;;;;;;5.77;3.33;;;27.10;59.00;;;;;;5015888;28;20488;-55
2022/05/07 11:40:54;;;;;;;7.30;2.73;;;27.30;61.00;;;;;;5017038;28;20499;-54
2022/05/07 11:46:07;;;;;;;3.30;2.70;;;27.10;54.60;;;;;;5024010;28;20482;-56
2022/05/07 11:48:34;;;;;;;4.07;3.43;;;27.00;56.80;;;;;;5017932;28;20515;-54
2022/05/07 11:51:01;;;;;;;3.67;2.80;;;27.00;55.50;;;;;;5017253;28;20496;-54
2022/05/07 11:53:29;;;;;;;3.50;3.10;;;27.00;56.80;;;;;;5014934;28;20455;-55
2022/05/07 11:56:06;;;;;;;3.63;2.90;;;27.10;55.40;;;;;;5016539;28;20459;-54
2022/05/07 11:58:40;;;;;;;6.13;2.80;;;26.90;58.00;;;;;;5017849;28;20575;-54
2022/05/07 12:01:18;;;;;;;3.17;2.87;;;27.10;58.50;;;;;;5017714;28;21059;-55
2022/05/07 12:03:45;;;;;;;3.43;2.57;;;27.30;57.80;;;;;;4999298;28;20573;-55
2022/05/07 12:06:12;;;;;;;3.03;2.83;;;27.20;56.40;;;;;;5026360;28;20474;-55
2022/05/07 12:08:40;;;;;;;16.67;3.30;;;27.20;55.00;;;;;;5013733;28;20878;-54
2022/05/07 12:11:07;;;;;;;5.40;3.27;;;27.00;56.60;;;;;;5003529;28;20543;-55
2022/05/07 12:13:35;;;;;;;4.37;3.30;;;26.90;54.40;;;;;;4989544;28;20480;-54
2022/05/07 12:18:49;;;;;;;5.67;3.37;;;26.10;54.50;;;;;;5015741;28;20487;-55
2022/05/07 12:21:16;;;;;;;3.23;3.00;;;25.90;57.60;;;;;;5016766;28;20952;-56
2022/05/07 12:31:57;;;;;;;3.70;2.40;;;26.60;57.30;;;;;;5007048;28;20547;-55
2022/05/07 12:34:25;;;;;;;5.70;3.30;;;26.60;58.00;;;;;;5007310;28;20473;-55
2022/05/07 12:36:52;;;;;;;5.23;3.27;;;26.40;57.30;;;;;;5014574;28;20843;-55
2022/05/07 12:39:19;;;;;;;4.07;3.23;;;26.10;56.40;;;;;;5006097;28;20459;-55
2022/05/07 12:41:46;;;;;;;5.60;3.30;;;26.00;58.50;;;;;;5001126;28;20948;-55
2022/05/07 12:44:12;;;;;;;6.90;3.50;;;26.10;59.20;;;;;;5022423;28;20820;-54
2022/05/07 12:46:40;;;;;;;18.43;4.43;;;26.40;60.50;;;;;;5010782;28;20496;-55
2022/05/07 12:49:08;;;;;;;4.50;3.27;;;26.50;58.40;;;;;;5017463;28;20546;-54
2022/05/07 12:51:36;;;;;;;2.93;2.50;;;26.60;58.60;;;;;;5016933;28;20543;-55
2022/05/07 12:54:03;;;;;;;6.10;3.07;;;26.80;58.80;;;;;;5016912;28;20593;-55
2022/05/07 12:56:30;;;;;;;2.60;2.40;;;27.00;57.30;;;;;;5017452;28;20481;-55
2022/05/07 12:58:57;;;;;;;3.13;2.83;;;26.90;56.40;;;;;;5013888;28;20943;-55
2022/05/07 13:01:24;;;;;;;3.30;3.00;;;26.90;57.50;;;;;;5007773;28;20484;-55
2022/05/07 13:03:50;;;;;;;3.60;3.20;;;26.90;57.00;;;;;;5013936;28;20484;-55
2022/05/07 13:06:17;;;;;;;5.10;2.80;;;26.70;57.80;;;;;;5014975;28;20488;-54
2022/05/07 13:08:45;;;;;;;3.70;2.67;;;26.70;56.00;;;;;;5016307;28;21051;-55
2022/05/07 13:11:12;;;;;;;2.77;2.07;;;26.70;56.10;;;;;;5015729;28;20480;-56
2022/05/07 13:13:39;;;;;;;3.73;3.43;;;26.50;53.30;;;;;;5012519;28;20476;-53
2022/05/07 13:16:07;;;;;;;3.30;2.90;;;26.70;53.70;;;;;;5016740;28;20854;-53
2022/05/07 13:18:35;;;;;;;5.80;2.60;;;26.70;59.00;;;;;;5013887;28;20764;-53
2022/05/07 13:21:01;;;;;;;6.83;2.83;;;26.60;55.50;;;;;;5014318;28;20578;-53
2022/05/07 13:23:28;;;;;;;4.03;3.67;;;26.50;58.20;;;;;;5014004;28;20474;-53
2022/05/07 13:25:56;;;;;;;6.67;2.70;;;26.60;57.50;;;;;;5014509;28;20451;-53
2022/05/07 13:28:23;;;;;;;6.03;3.10;;;26.50;55.90;;;;;;5016942;28;20484;-54
2022/05/07 13:30:49;;;;;;;6.07;3.00;;;26.50;58.00;;;;;;5012339;28;20500;-54
2022/05/07 13:33:16;;;;;;;3.47;3.17;;;26.70;57.80;;;;;;5010572;28;20925;-53